createdAt,value
2023-01-18T00:04:09.481Z,5.43
2023-01-18T00:09:12.333Z,7.12
2023-01-18T00:14:14.434Z,8.07
2023-01-18T00:19:17.004Z,9.02
2023-01-18T00:24:20.647Z,8.57
2023-01-18T00:29:22.832Z,8.93
2023-01-18T00:34:28.141Z,9.43
2023-01-18T00:39:30.272Z,9.87
2023-01-18T00:44:32.371Z,13.00
2023-01-18T00:49:34.511Z,9.25
2023-01-18T00:54:36.633Z,5.57
2023-01-18T00:59:38.828Z,5.37
2023-01-18T01:04:59.458Z,4.80
2023-01-18T01:10:08.939Z,10.53
2023-01-18T01:15:29.792Z,4.20
2023-01-18T01:20:50.675Z,5.13
2023-01-18T01:26:06.461Z,5.10
2023-01-18T01:31:15.488Z,5.27
2023-01-18T01:36:25.886Z,4.13
2023-01-18T01:41:31.064Z,5.27
2023-01-18T01:46:46.503Z,5.23
2023-01-18T01:52:12.225Z,5.60
2023-01-18T01:57:24.459Z,3.90
2023-01-18T02:02:27.519Z,4.65
2023-01-18T02:07:29.988Z,3.53
2023-01-18T02:18:11.755Z,3.72
2023-01-18T02:23:45.655Z,4.83
2023-01-18T02:29:05.385Z,2.83
2023-01-18T02:34:13.557Z,4.63
2023-01-18T02:39:38.415Z,4.03
2023-01-18T02:45:03.586Z,3.93
2023-01-18T02:50:06.005Z,2.83
2023-01-18T03:00:25.262Z,5.47
2023-01-18T03:05:29.930Z,2.90
2023-01-18T03:10:38.951Z,6.87
2023-01-18T03:15:52.662Z,4.20
2023-01-18T03:20:57.001Z,3.93
2023-01-18T03:26:01.279Z,7.73
2023-01-18T03:31:27.389Z,7.17
2023-01-18T03:36:38.957Z,3.00
2023-01-18T03:41:45.016Z,5.90
2023-01-18T03:46:47.244Z,5.77
2023-01-18T03:52:15.208Z,3.35
2023-01-18T03:57:40.066Z,3.03
2023-01-18T04:02:47.121Z,4.40
2023-01-18T04:07:50.154Z,2.67
2023-01-18T04:12:52.850Z,3.47
2023-01-18T04:17:55.890Z,3.27
2023-01-18T04:22:58.409Z,3.10
2023-01-18T04:28:00.705Z,4.63
2023-01-18T04:33:02.866Z,3.47
2023-01-18T04:38:05.066Z,3.72
2023-01-18T04:43:07.172Z,3.70
2023-01-18T04:48:09.344Z,4.10
2023-01-18T04:53:11.460Z,3.25
2023-01-18T04:58:15.013Z,9.68
2023-01-18T05:03:17.227Z,3.95
2023-01-18T05:08:19.333Z,6.40
2023-01-18T05:13:21.430Z,4.97
2023-01-18T05:18:23.620Z,5.82
2023-01-18T05:23:25.796Z,5.60
2023-01-18T05:28:28.307Z,5.20
2023-01-18T05:38:32.622Z,3.25
2023-01-18T05:43:35.775Z,5.22
2023-01-18T05:48:38.008Z,5.77
2023-01-18T05:53:40.765Z,2.58
2023-01-18T05:58:42.968Z,14.30
2023-01-18T06:03:45.160Z,5.90
2023-01-18T06:08:47.319Z,2.60
2023-01-18T06:13:49.484Z,2.25
2023-01-18T06:18:51.939Z,5.70
2023-01-18T06:28:56.090Z,3.53
2023-01-18T06:33:58.641Z,3.53
2023-01-18T06:39:00.734Z,3.85
2023-01-18T06:44:03.501Z,7.78
2023-01-18T06:49:05.595Z,5.20
2023-01-18T06:54:08.689Z,5.68
2023-01-18T06:59:10.841Z,6.20
2023-01-18T07:04:12.963Z,7.65
2023-01-18T07:09:15.135Z,6.12
2023-01-18T07:14:17.277Z,3.85
2023-01-18T07:19:19.407Z,4.28
2023-01-18T07:24:22.348Z,2.25
2023-01-18T07:29:24.476Z,2.67
2023-01-18T07:34:26.695Z,4.25
2023-01-18T07:39:28.916Z,4.80
2023-01-18T07:44:31.009Z,1.25
2023-01-18T07:49:33.132Z,6.22
2023-01-18T07:54:35.771Z,6.55
2023-01-18T07:59:38.916Z,8.03
2023-01-18T08:04:41.876Z,2.37
2023-01-18T08:09:44.172Z,4.07
2023-01-18T08:14:46.399Z,9.35
2023-01-18T08:19:48.738Z,4.32
2023-01-18T08:29:53.162Z,7.70
2023-01-18T08:34:56.111Z,4.50
2023-01-18T08:39:58.209Z,4.00
2023-01-18T08:45:00.314Z,3.70
2023-01-18T08:50:02.411Z,3.45
2023-01-18T08:55:05.570Z,4.90
2023-01-18T09:00:09.896Z,7.23
2023-01-18T09:05:12.001Z,8.15
2023-01-18T09:10:14.542Z,4.60
2023-01-18T09:15:18.128Z,3.75
2023-01-18T09:20:20.382Z,6.80
2023-01-18T09:25:22.463Z,5.65
2023-01-18T09:30:24.783Z,4.72
2023-01-18T09:35:27.003Z,4.45
2023-01-18T09:40:50.919Z,7.95
2023-01-18T09:45:53.481Z,9.55
2023-01-18T09:51:02.077Z,4.05
2023-01-18T09:56:25.706Z,4.00
2023-01-18T10:01:36.144Z,10.70
2023-01-18T10:06:47.433Z,6.23
2023-01-18T10:12:02.891Z,7.40
2023-01-18T10:17:14.707Z,10.27
2023-01-18T10:22:32.950Z,5.50
2023-01-18T10:28:04.311Z,6.30
2023-01-18T10:33:38.446Z,7.27
2023-01-18T10:38:41.159Z,3.30
2023-01-18T10:43:44.507Z,9.23
2023-01-18T10:48:49.231Z,2.67
2023-01-18T10:53:51.360Z,4.80
2023-01-18T10:58:58.014Z,4.03
2023-01-18T11:04:24.712Z,3.83
2023-01-18T11:09:55.391Z,8.70
2023-01-18T11:14:58.095Z,4.45
2023-01-18T11:20:18.346Z,6.85
2023-01-18T11:25:20.970Z,5.15
2023-01-18T11:35:38.641Z,4.20
2023-01-18T11:40:40.832Z,8.00
2023-01-18T11:45:59.610Z,8.30
2023-01-18T11:51:07.414Z,9.60
2023-01-18T11:56:18.264Z,10.95
2023-01-18T12:02:07.164Z,6.67
2023-01-18T12:07:33.703Z,6.80
2023-01-18T12:12:53.871Z,9.45
2023-01-18T12:18:24.538Z,10.30
2023-01-18T12:23:40.509Z,10.30
2023-01-18T12:29:15.845Z,11.17
2023-01-18T12:34:23.502Z,12.23
2023-01-18T12:39:52.335Z,11.67
2023-01-18T12:45:03.588Z,9.17
2023-01-18T12:50:24.083Z,6.30
2023-01-18T12:55:31.460Z,5.20
2023-01-18T13:00:37.727Z,7.50
2023-01-18T13:05:57.164Z,6.03
2023-01-18T13:11:17.221Z,8.97
2023-01-18T13:16:19.786Z,8.75
2023-01-18T13:21:39.648Z,4.72
2023-01-18T13:26:42.851Z,6.03
2023-01-18T13:31:46.766Z,7.27
2023-01-18T13:36:49.199Z,14.30
2023-01-18T13:47:39.396Z,15.73
2023-01-18T13:52:43.495Z,5.60
2023-01-18T13:57:55.373Z,11.00
2023-01-18T14:03:07.812Z,7.80
2023-01-18T14:08:29.287Z,14.75
2023-01-18T14:13:48.194Z,8.55
2023-01-18T14:19:22.306Z,8.50
2023-01-18T14:29:53.380Z,11.07
2023-01-18T14:35:03.574Z,7.80
2023-01-18T14:40:25.327Z,8.40
2023-01-18T14:45:44.544Z,7.80
2023-01-18T14:50:48.625Z,12.07
2023-01-18T14:56:10.941Z,8.67
2023-01-18T15:01:27.517Z,6.77
2023-01-18T15:06:56.374Z,3.77
2023-01-18T15:12:02.957Z,6.35
2023-01-18T15:17:21.765Z,2.90
2023-01-18T15:22:32.897Z,2.60
2023-01-18T15:27:36.614Z,3.73
2023-01-18T15:32:39.086Z,9.67
2023-01-18T15:37:42.013Z,7.00
2023-01-18T15:43:16.910Z,8.13
2023-01-18T15:48:22.655Z,3.70
2023-01-18T15:53:32.899Z,3.60
2023-01-18T15:58:55.875Z,3.60
2023-01-18T16:04:22.028Z,4.18
2023-01-18T16:09:24.815Z,2.30
2023-01-18T16:14:33.677Z,3.80
2023-01-18T16:19:48.571Z,5.90
2023-01-18T16:25:11.033Z,9.67
2023-01-18T16:30:22.152Z,7.63
2023-01-18T16:35:24.791Z,5.50
2023-01-18T16:40:28.476Z,9.33
2023-01-18T16:45:34.985Z,15.53
2023-01-18T16:50:38.135Z,14.33
2023-01-18T16:55:40.839Z,7.10
2023-01-18T17:00:52.251Z,9.53
2023-01-18T17:05:55.499Z,10.80
2023-01-18T17:10:57.665Z,17.35
2023-01-18T17:15:59.886Z,8.52
2023-01-18T17:26:04.169Z,15.20
2023-01-18T17:31:06.345Z,8.90
2023-01-18T17:41:26.679Z,11.05
2023-01-18T17:46:31.133Z,7.50
2023-01-18T17:51:35.398Z,8.63
2023-01-18T17:56:38.069Z,10.35
2023-01-18T18:01:40.318Z,13.50
2023-01-18T18:06:49.734Z,18.10
2023-01-18T18:11:56.257Z,20.83
2023-01-18T18:22:01.277Z,33.25
2023-01-18T18:27:03.444Z,16.53
2023-01-18T18:32:07.158Z,7.60
2023-01-18T18:37:09.468Z,8.70
2023-01-18T18:47:13.936Z,9.77
2023-01-18T18:57:18.817Z,8.23
2023-01-18T19:02:21.623Z,18.70
2023-01-18T19:07:24.141Z,21.10
2023-01-18T19:12:26.318Z,17.67
2023-01-18T19:22:37.941Z,14.03
2023-01-18T19:27:40.081Z,16.03
2023-01-18T19:37:45.812Z,11.50
2023-01-18T19:42:55.623Z,15.23
2023-01-18T19:47:59.623Z,12.30
2023-01-18T19:53:03.465Z,10.53
2023-01-18T19:58:06.645Z,7.53
2023-01-18T20:03:12.027Z,9.00
2023-01-18T20:08:14.588Z,9.67
2023-01-18T20:13:17.241Z,8.10
2023-01-18T20:18:19.341Z,10.83
2023-01-18T20:23:21.492Z,10.57
2023-01-18T20:28:23.693Z,8.45
2023-01-18T20:38:28.779Z,18.17
2023-01-18T20:43:30.906Z,14.17
2023-01-18T20:53:38.033Z,22.62
2023-01-18T20:58:40.168Z,26.47
2023-01-18T21:08:45.277Z,18.23
2023-01-18T21:18:52.655Z,16.67
2023-01-18T21:23:55.175Z,9.10
2023-01-18T21:28:57.307Z,8.93
2023-01-18T21:39:01.490Z,14.80
2023-01-18T21:50:11.357Z,12.37
2023-01-18T21:55:05.882Z,17.90
2023-01-18T22:00:08.967Z,17.17
2023-01-18T22:05:11.123Z,27.33
2023-01-18T22:15:20.083Z,19.67
2023-01-18T22:20:22.261Z,17.47
2023-01-18T22:30:26.997Z,9.67
2023-01-18T22:35:31.384Z,8.70
2023-01-18T22:40:33.495Z,12.30
2023-01-18T22:45:35.992Z,9.57
2023-01-18T22:50:38.476Z,10.83
2023-01-18T22:55:40.760Z,16.67
2023-01-18T23:00:47.646Z,12.57
2023-01-18T23:05:54.882Z,13.97
2023-01-18T23:10:57.742Z,13.87
2023-01-18T23:16:18.482Z,12.67
2023-01-18T23:21:20.637Z,10.50
2023-01-18T23:26:22.699Z,17.87
2023-01-18T23:31:24.938Z,12.95
2023-01-18T23:41:48.326Z,13.57
2023-01-18T23:47:09.208Z,11.57
2023-01-18T23:52:30.133Z,12.43
2023-01-18T23:57:32.971Z,9.20
